createdAt,value
2023-06-29T00:02:21.143Z,16.54
2023-06-29T00:05:24.266Z,16.44
2023-06-29T00:08:28.580Z,16.35
2023-06-29T00:11:32.059Z,16.29
2023-06-29T00:14:34.774Z,16.18
2023-06-29T00:17:38.082Z,16.11
2023-06-29T00:20:42.127Z,16.10
2023-06-29T00:23:47.169Z,16.11
2023-06-29T00:26:50.272Z,16.09
2023-06-29T00:29:53.128Z,16.04
2023-06-29T00:32:56.144Z,16.04
2023-06-29T00:35:59.081Z,16.06
2023-06-29T00:39:01.634Z,16.06
2023-06-29T00:42:07.045Z,16.09
2023-06-29T00:45:10.425Z,16.11
2023-06-29T00:48:13.896Z,16.11
2023-06-29T00:51:17.365Z,16.13
2023-06-29T00:54:21.729Z,16.17
2023-06-29T00:57:25.356Z,16.19
2023-06-29T01:00:28.466Z,16.25
2023-06-29T01:03:32.192Z,16.29
2023-06-29T01:06:45.641Z,16.31
2023-06-29T01:09:48.647Z,16.31
2023-06-29T01:12:52.848Z,16.25
2023-06-29T01:15:56.355Z,16.29
2023-06-29T01:19:01.239Z,16.32
2023-06-29T01:22:09.271Z,16.35
2023-06-29T01:25:12.676Z,16.39
2023-06-29T01:28:15.458Z,16.39
2023-06-29T01:31:18.925Z,16.49
2023-06-29T01:34:22.869Z,16.44
2023-06-29T01:37:29.685Z,16.39
2023-06-29T01:40:33.556Z,16.34
2023-06-29T01:43:37.477Z,16.29
2023-06-29T01:46:40.593Z,16.32
2023-06-29T01:49:43.730Z,16.31
2023-06-29T01:52:46.598Z,16.24
2023-06-29T01:55:50.624Z,16.25
2023-06-29T01:58:53.301Z,16.19
2023-06-29T02:01:56.203Z,16.17
2023-06-29T02:05:00.319Z,16.11
2023-06-29T02:08:03.096Z,16.05
2023-06-29T02:11:06.118Z,16.00
2023-06-29T02:14:08.973Z,16.07
2023-06-29T02:17:11.902Z,16.03
2023-06-29T02:20:15.306Z,16.02
2023-06-29T02:23:17.892Z,15.99
2023-06-29T02:26:20.906Z,15.98
2023-06-29T02:29:24.422Z,16.07
2023-06-29T02:32:28.999Z,16.08
2023-06-29T02:35:31.671Z,16.07
2023-06-29T02:38:35.545Z,16.12
2023-06-29T02:41:38.173Z,16.08
2023-06-29T02:44:41.227Z,16.11
2023-06-29T02:47:44.134Z,16.12
2023-06-29T02:50:47.384Z,15.99
2023-06-29T02:53:50.270Z,15.95
2023-06-29T02:56:53.216Z,15.87
2023-06-29T02:59:55.853Z,15.83
2023-06-29T03:02:58.883Z,15.81
2023-06-29T03:06:01.553Z,15.89
2023-06-29T03:09:05.388Z,15.97
2023-06-29T03:12:10.536Z,15.88
2023-06-29T03:15:13.390Z,15.88
2023-06-29T03:18:15.981Z,15.85
2023-06-29T03:21:21.540Z,15.93
2023-06-29T03:24:24.050Z,15.94
2023-06-29T03:27:26.919Z,15.90
2023-06-29T03:30:29.456Z,15.93
2023-06-29T03:33:32.418Z,16.01
2023-06-29T03:36:34.996Z,16.06
2023-06-29T03:39:37.924Z,16.12
2023-06-29T03:42:40.523Z,16.23
2023-06-29T03:45:43.849Z,16.34
2023-06-29T03:48:46.604Z,16.38
2023-06-29T03:51:49.458Z,16.55
2023-06-29T03:54:52.083Z,16.69
2023-06-29T03:57:55.945Z,16.69
2023-06-29T04:00:58.558Z,16.70
2023-06-29T04:04:01.446Z,16.73
2023-06-29T04:07:04.250Z,16.84
2023-06-29T04:10:07.573Z,16.99
2023-06-29T04:13:10.255Z,17.01
2023-06-29T04:16:13.101Z,17.10
2023-06-29T04:19:17.134Z,17.14
2023-06-29T04:22:20.047Z,17.20
2023-06-29T04:25:22.645Z,17.30
2023-06-29T04:28:25.532Z,17.45
2023-06-29T04:31:29.439Z,17.45
2023-06-29T04:34:32.312Z,17.59
2023-06-29T04:37:41.758Z,17.63
2023-06-29T04:40:44.864Z,17.68
2023-06-29T04:43:48.941Z,17.85
2023-06-29T04:46:51.888Z,17.85
2023-06-29T04:49:58.083Z,17.97
2023-06-29T04:53:07.136Z,18.06
2023-06-29T04:56:09.810Z,18.23
2023-06-29T04:59:12.634Z,18.37
2023-06-29T05:02:15.272Z,18.34
2023-06-29T05:05:18.346Z,18.44
2023-06-29T05:08:20.989Z,18.40
2023-06-29T05:11:23.848Z,18.49
2023-06-29T05:14:27.741Z,18.65
2023-06-29T05:17:31.478Z,18.77
2023-06-29T05:20:35.515Z,18.95
2023-06-29T05:23:38.878Z,19.13
2023-06-29T05:26:41.409Z,19.11
2023-06-29T05:29:44.234Z,19.25
2023-06-29T05:32:46.862Z,19.30
2023-06-29T05:35:49.922Z,19.24
2023-06-29T05:38:52.592Z,19.42
2023-06-29T05:41:55.457Z,19.52
2023-06-29T05:44:59.750Z,19.63
2023-06-29T05:48:02.696Z,19.61
2023-06-29T05:51:05.383Z,19.67
2023-06-29T05:54:08.271Z,19.69
2023-06-29T05:57:10.937Z,19.87
2023-06-29T06:00:14.364Z,19.85
2023-06-29T06:03:21.243Z,19.92
2023-06-29T06:06:24.191Z,20.05
2023-06-29T06:09:27.089Z,20.17
2023-06-29T06:12:29.770Z,20.13
2023-06-29T06:15:32.762Z,20.20
2023-06-29T06:18:35.463Z,20.23
2023-06-29T06:21:38.374Z,20.18
2023-06-29T06:24:41.010Z,20.14
2023-06-29T06:27:44.704Z,20.02
2023-06-29T06:30:48.315Z,20.34
2023-06-29T06:33:54.233Z,20.70
2023-06-29T06:36:57.162Z,20.85
2023-06-29T06:40:00.100Z,20.95
2023-06-29T06:43:03.236Z,20.96
2023-06-29T06:46:06.083Z,21.03
2023-06-29T06:49:09.038Z,21.05
2023-06-29T06:52:12.010Z,21.11
2023-06-29T06:55:14.638Z,21.28
2023-06-29T06:58:17.471Z,21.42
2023-06-29T07:01:22.956Z,21.28
2023-06-29T07:04:25.903Z,21.29
2023-06-29T07:07:28.577Z,21.35
2023-06-29T07:10:31.393Z,21.55
2023-06-29T07:13:34.127Z,21.55
2023-06-29T07:16:37.080Z,21.68
2023-06-29T07:25:51.584Z,22.20
2023-06-29T07:28:54.594Z,21.95
2023-06-29T07:31:57.594Z,22.07
2023-06-29T07:35:00.502Z,22.29
2023-06-29T07:38:03.168Z,22.17
2023-06-29T07:41:06.340Z,22.09
2023-06-29T07:44:09.011Z,22.33
2023-06-29T07:47:11.990Z,22.24
2023-06-29T07:50:14.937Z,22.50
2023-06-29T07:53:17.841Z,22.64
2023-06-29T07:56:20.470Z,22.55
2023-06-29T07:59:23.448Z,22.62
2023-06-29T08:02:26.111Z,22.78
2023-06-29T08:08:34.833Z,23.03
2023-06-29T08:11:38.383Z,23.12
2023-06-29T08:14:40.966Z,23.31
2023-06-29T08:17:44.129Z,23.00
2023-06-29T08:20:49.668Z,23.05
2023-06-29T08:23:52.576Z,23.22
2023-06-29T08:26:55.353Z,23.28
2023-06-29T08:29:58.320Z,23.40
2023-06-29T08:33:00.934Z,23.32
2023-06-29T08:36:04.012Z,23.39
2023-06-29T08:39:06.745Z,23.14
2023-06-29T08:42:09.672Z,23.51
2023-06-29T08:45:12.493Z,23.80
2023-06-29T08:48:16.027Z,24.05
2023-06-29T08:51:20.348Z,24.44
2023-06-29T08:54:23.569Z,24.05
2023-06-29T08:57:26.236Z,23.82
2023-06-29T09:00:29.897Z,23.76
2023-06-29T09:03:33.355Z,23.74
2023-06-29T09:06:36.243Z,23.87
2023-06-29T09:09:39.152Z,23.60
2023-06-29T09:12:42.379Z,23.52
2023-06-29T09:15:46.403Z,23.74
2023-06-29T09:18:50.519Z,24.25
2023-06-29T09:21:53.148Z,25.13
2023-06-29T09:25:09.861Z,25.08
2023-06-29T09:28:16.177Z,24.91
2023-06-29T09:31:19.200Z,24.90
2023-06-29T09:34:23.644Z,24.47
2023-06-29T09:37:26.550Z,24.78
2023-06-29T09:40:29.378Z,25.02
2023-06-29T09:43:32.333Z,24.95
2023-06-29T09:46:37.261Z,25.21
2023-06-29T09:49:50.003Z,25.10
2023-06-29T09:52:55.044Z,24.95
2023-06-29T09:56:00.070Z,24.89
2023-06-29T09:59:03.570Z,24.83
2023-06-29T10:02:10.417Z,25.44
2023-06-29T10:05:13.371Z,26.12
2023-06-29T10:08:19.873Z,26.29
2023-06-29T10:11:28.304Z,26.26
2023-06-29T10:14:33.960Z,26.38
2023-06-29T10:18:16.337Z,26.20
2023-06-29T10:21:19.031Z,26.24
2023-06-29T10:24:25.825Z,26.19
2023-06-29T10:27:31.035Z,26.27
2023-06-29T10:31:03.297Z,25.70
2023-06-29T10:34:08.797Z,25.31
2023-06-29T10:37:11.702Z,25.49
2023-06-29T10:40:16.800Z,26.05
2023-06-29T10:43:19.728Z,26.12
2023-06-29T10:46:47.460Z,25.97
2023-06-29T10:49:56.753Z,26.69
2023-06-29T10:53:01.209Z,26.89
2023-06-29T10:56:04.317Z,27.12
2023-06-29T10:59:09.464Z,27.02
2023-06-29T11:02:13.122Z,27.09
2023-06-29T11:05:20.082Z,27.26
2023-06-29T11:08:24.032Z,27.50
2023-06-29T11:11:26.753Z,27.82
2023-06-29T11:14:29.839Z,27.52
2023-06-29T11:17:32.476Z,27.52
2023-06-29T11:20:38.884Z,27.89
2023-06-29T11:23:50.739Z,27.67
2023-06-29T11:26:56.812Z,27.10
2023-06-29T11:29:59.714Z,27.54
2023-06-29T11:33:05.270Z,27.80
2023-06-29T11:36:13.568Z,27.75
2023-06-29T11:39:18.953Z,28.11
2023-06-29T11:42:23.606Z,28.09
2023-06-29T11:45:26.683Z,28.13
2023-06-29T11:48:31.200Z,28.29
2023-06-29T11:55:07.395Z,28.97
2023-06-29T11:58:14.291Z,28.86
2023-06-29T12:01:17.129Z,27.59
2023-06-29T12:04:20.387Z,27.49
2023-06-29T12:07:55.522Z,27.68
2023-06-29T12:10:58.463Z,27.80
2023-06-29T12:14:02.308Z,27.53
2023-06-29T12:20:19.807Z,27.70
2023-06-29T12:23:22.896Z,27.80
2023-06-29T12:26:26.299Z,28.06
2023-06-29T12:29:29.158Z,28.29
2023-06-29T12:32:31.825Z,28.47
2023-06-29T12:35:34.953Z,28.03
2023-06-29T12:38:37.594Z,27.39
2023-06-29T12:41:40.405Z,27.41
2023-06-29T12:44:43.030Z,27.47
2023-06-29T12:47:45.937Z,27.86
2023-06-29T12:50:48.906Z,28.28
2023-06-29T12:53:52.013Z,28.49
2023-06-29T12:56:54.621Z,28.61
2023-06-29T12:59:59.297Z,28.41
2023-06-29T13:03:06.768Z,28.34
2023-06-29T13:06:09.830Z,28.42
2023-06-29T13:09:12.489Z,27.99
2023-06-29T13:12:15.992Z,27.59
2023-06-29T13:15:18.773Z,27.83
2023-06-29T13:18:21.669Z,28.05
2023-06-29T13:21:24.441Z,28.02
2023-06-29T13:24:27.468Z,28.32
2023-06-29T13:27:30.064Z,28.45
2023-06-29T13:30:33.520Z,28.74
2023-06-29T13:33:36.174Z,29.02
2023-06-29T13:36:39.158Z,29.12
2023-06-29T13:39:42.278Z,29.30
2023-06-29T13:42:45.321Z,29.40
2023-06-29T13:45:49.832Z,29.64
2023-06-29T13:48:53.248Z,29.35
2023-06-29T13:51:55.928Z,30.02
2023-06-29T13:54:59.233Z,29.44
2023-06-29T13:58:01.923Z,29.32
2023-06-29T14:01:04.755Z,29.88
2023-06-29T14:04:09.645Z,30.45
2023-06-29T14:07:12.385Z,30.07
2023-06-29T14:10:15.386Z,29.78
2023-06-29T14:13:17.974Z,29.79
2023-06-29T14:16:20.943Z,30.14
2023-06-29T14:19:23.553Z,30.43
2023-06-29T14:22:26.464Z,30.12
2023-06-29T14:25:29.080Z,29.94
2023-06-29T14:28:31.903Z,30.26
2023-06-29T14:31:36.616Z,31.06
2023-06-29T14:34:39.962Z,31.82
2023-06-29T14:37:42.581Z,32.09
2023-06-29T14:40:45.407Z,32.55
2023-06-29T14:43:48.015Z,32.70
2023-06-29T14:46:51.737Z,33.05
2023-06-29T14:49:54.342Z,34.02
2023-06-29T14:52:57.443Z,35.02
2023-06-29T14:56:08.283Z,36.07
2023-06-29T14:59:12.412Z,37.22
2023-06-29T15:02:15.192Z,38.95
2023-06-29T15:05:18.092Z,39.89
2023-06-29T15:08:20.700Z,40.78
2023-06-29T15:11:23.599Z,37.00
2023-06-29T15:14:26.720Z,34.18
2023-06-29T15:17:30.519Z,32.15
2023-06-29T15:20:33.264Z,30.81
2023-06-29T15:23:36.111Z,29.66
2023-06-29T15:26:38.863Z,30.65
2023-06-29T15:29:41.729Z,30.21
2023-06-29T15:32:44.394Z,29.59
2023-06-29T15:35:47.744Z,28.95
2023-06-29T15:38:50.605Z,28.27
2023-06-29T15:41:53.656Z,28.34
2023-06-29T15:44:56.373Z,27.89
2023-06-29T15:47:59.467Z,27.69
2023-06-29T15:51:02.388Z,27.69
2023-06-29T15:54:05.282Z,27.99
2023-06-29T15:57:07.905Z,28.68
2023-06-29T16:00:11.251Z,32.42
2023-06-29T16:03:14.213Z,36.06
2023-06-29T16:06:26.404Z,38.50
2023-06-29T16:09:33.282Z,40.02
2023-06-29T16:12:36.286Z,40.34
2023-06-29T16:15:38.861Z,40.56
2023-06-29T16:18:43.073Z,38.63
2023-06-29T16:21:46.508Z,36.00
2023-06-29T16:24:49.354Z,33.56
2023-06-29T16:27:52.191Z,32.31
2023-06-29T16:30:57.342Z,30.63
2023-06-29T16:34:00.068Z,29.60
2023-06-29T16:37:03.111Z,29.05
2023-06-29T16:40:06.568Z,28.91
2023-06-29T16:43:09.623Z,28.76
2023-06-29T16:46:12.193Z,28.71
2023-06-29T16:49:15.169Z,28.65
2023-06-29T16:52:17.740Z,28.34
2023-06-29T16:55:20.864Z,27.94
2023-06-29T16:58:27.082Z,27.76
2023-06-29T17:01:30.119Z,27.36
2023-06-29T17:04:32.860Z,27.00
2023-06-29T17:07:35.778Z,26.82
2023-06-29T17:10:38.498Z,26.73
2023-06-29T17:13:41.734Z,26.64
2023-06-29T17:16:44.545Z,26.52
2023-06-29T17:19:50.080Z,26.49
2023-06-29T17:22:52.667Z,26.32
2023-06-29T17:25:55.616Z,26.41
2023-06-29T17:28:58.387Z,26.31
2023-06-29T17:32:01.375Z,26.26
2023-06-29T17:35:04.339Z,26.20
2023-06-29T17:38:07.546Z,26.16
2023-06-29T17:41:11.630Z,26.02
2023-06-29T17:44:15.620Z,25.94
2023-06-29T17:47:18.364Z,25.78
2023-06-29T17:50:21.533Z,25.62
2023-06-29T17:53:24.063Z,25.42
2023-06-29T17:56:26.975Z,25.33
2023-06-29T17:59:29.575Z,25.23
2023-06-29T18:02:32.583Z,25.11
2023-06-29T18:05:35.623Z,25.05
2023-06-29T18:08:38.588Z,24.99
2023-06-29T18:11:41.431Z,24.88
2023-06-29T18:14:44.073Z,24.72
2023-06-29T18:17:46.963Z,24.62
2023-06-29T18:20:49.685Z,24.58
2023-06-29T18:23:52.604Z,24.47
2023-06-29T18:26:55.300Z,24.33
2023-06-29T18:29:58.258Z,24.27
2023-06-29T18:33:00.933Z,24.10
2023-06-29T18:36:04.094Z,24.05
2023-06-29T18:39:06.793Z,23.93
2023-06-29T18:42:11.343Z,23.79
2023-06-29T18:45:13.999Z,23.72
2023-06-29T18:48:16.876Z,23.59
2023-06-29T18:51:23.974Z,23.55
2023-06-29T18:54:27.036Z,23.52
2023-06-29T18:57:29.785Z,23.42
2023-06-29T19:00:32.716Z,23.31
2023-06-29T19:03:35.549Z,23.34
2023-06-29T19:06:38.543Z,23.32
2023-06-29T19:09:41.079Z,23.22
2023-06-29T19:12:43.931Z,23.07
2023-06-29T19:15:47.110Z,22.90
2023-06-29T19:18:50.399Z,22.81
2023-06-29T19:21:53.394Z,22.67
2023-06-29T19:24:56.362Z,22.58
2023-06-29T19:27:59.019Z,22.47
2023-06-29T19:31:02.173Z,22.33
2023-06-29T19:34:04.955Z,22.20
2023-06-29T19:37:07.800Z,22.04
2023-06-29T19:40:11.048Z,21.94
2023-06-29T19:43:14.026Z,21.84
2023-06-29T19:46:16.711Z,21.73
2023-06-29T19:49:20.154Z,21.58
2023-06-29T19:52:23.995Z,21.50
2023-06-29T19:55:26.858Z,21.43
2023-06-29T19:58:29.720Z,21.35
2023-06-29T20:01:32.723Z,21.24
2023-06-29T20:04:35.653Z,21.19
2023-06-29T20:07:40.733Z,21.11
2023-06-29T20:10:44.001Z,21.02
2023-06-29T20:13:46.834Z,20.93
2023-06-29T20:16:50.240Z,20.86
2023-06-29T20:19:55.189Z,20.82
2023-06-29T20:22:58.342Z,20.72
2023-06-29T20:26:01.223Z,20.67
2023-06-29T20:29:04.378Z,20.58
2023-06-29T20:32:07.553Z,20.53
2023-06-29T20:35:10.492Z,20.48
2023-06-29T20:38:13.128Z,20.44
2023-06-29T20:41:16.071Z,20.36
2023-06-29T20:44:19.524Z,20.30
2023-06-29T20:47:22.395Z,20.27
2023-06-29T20:50:25.256Z,20.28
2023-06-29T20:53:28.138Z,20.30
2023-06-29T20:56:30.996Z,20.23
2023-06-29T20:59:35.047Z,20.20
2023-06-29T21:02:38.138Z,20.17
2023-06-29T21:05:41.298Z,20.19
2023-06-29T21:08:44.027Z,20.11
2023-06-29T21:11:47.120Z,20.05
2023-06-29T21:14:50.040Z,20.02
2023-06-29T21:17:54.909Z,19.98
2023-06-29T21:20:57.800Z,19.95
2023-06-29T21:24:00.944Z,19.93
2023-06-29T21:27:03.972Z,19.89
2023-06-29T21:30:08.105Z,19.82
2023-06-29T21:33:10.902Z,19.73
2023-06-29T21:36:14.199Z,19.63
2023-06-29T21:39:16.754Z,19.55
2023-06-29T21:42:19.879Z,19.49
2023-06-29T21:45:25.984Z,19.39
2023-06-29T21:48:29.223Z,19.34
2023-06-29T21:51:32.012Z,19.27
2023-06-29T21:54:34.869Z,19.23
2023-06-29T21:57:37.634Z,19.19
2023-06-29T22:00:41.267Z,19.12
2023-06-29T22:03:45.268Z,19.05
2023-06-29T22:06:49.985Z,19.09
2023-06-29T22:09:54.737Z,18.99
2023-06-29T22:12:57.407Z,18.89
2023-06-29T22:16:00.272Z,18.82
2023-06-29T22:19:02.991Z,18.73
2023-06-29T22:22:08.559Z,18.63
2023-06-29T22:25:11.618Z,18.62
2023-06-29T22:28:15.632Z,18.56
2023-06-29T22:31:19.069Z,18.52
2023-06-29T22:34:22.527Z,18.50
2023-06-29T22:37:25.151Z,18.43
2023-06-29T22:40:28.062Z,18.40
2023-06-29T22:43:30.688Z,18.34
2023-06-29T22:46:33.631Z,18.31
2023-06-29T22:49:36.300Z,18.26
2023-06-29T22:52:39.190Z,18.16
2023-06-29T22:55:41.838Z,18.09
2023-06-29T22:58:44.744Z,18.06
2023-06-29T23:01:49.774Z,18.01
2023-06-29T23:04:53.623Z,17.95
2023-06-29T23:07:56.360Z,17.92
2023-06-29T23:10:59.270Z,17.84
2023-06-29T23:14:01.816Z,17.80
2023-06-29T23:17:04.930Z,17.76
2023-06-29T23:20:12.629Z,17.75
2023-06-29T23:23:15.406Z,17.71
2023-06-29T23:26:20.415Z,17.68
2023-06-29T23:29:23.419Z,17.67
2023-06-29T23:32:26.615Z,17.65
2023-06-29T23:35:29.473Z,17.60
2023-06-29T23:38:32.051Z,17.59
2023-06-29T23:41:34.955Z,17.48
2023-06-29T23:44:41.610Z,17.44
2023-06-29T23:47:44.719Z,17.44
2023-06-29T23:50:48.621Z,17.44
2023-06-29T23:53:51.449Z,17.39
2023-06-29T23:56:54.054Z,17.36
2023-06-29T23:59:57.107Z,17.33
